createdAt,value
2018-08-10T16:45:26.491Z,1.07
2018-08-10T16:47:56.369Z,1.17
2018-08-10T16:50:26.132Z,1.17
2018-08-10T16:52:56.265Z,2.00
2018-08-10T16:55:26.028Z,1.40
2018-08-10T16:57:56.242Z,1.20
2018-08-10T17:00:26.227Z,1.40
2018-08-10T17:02:55.916Z,1.60
2018-08-10T17:05:25.999Z,1.40
2018-08-10T17:07:55.979Z,1.23
2018-08-10T17:10:27.704Z,1.60
2018-08-10T17:12:57.547Z,1.63
2018-08-10T17:15:27.071Z,1.50
2018-08-10T17:17:56.658Z,1.30
2018-08-10T17:20:26.210Z,1.83
2018-08-10T17:22:56.112Z,1.30
2018-08-10T17:25:25.790Z,1.50
2018-08-10T17:27:55.493Z,1.10
2018-08-10T17:30:25.838Z,1.30
2018-08-10T17:32:55.684Z,1.20
2018-08-10T17:35:25.904Z,1.27
2018-08-10T17:37:55.487Z,1.20
2018-08-10T17:40:25.079Z,1.30
2018-08-10T17:42:54.972Z,1.50
2018-08-10T17:45:24.966Z,1.27
2018-08-10T17:47:54.530Z,1.23
2018-08-10T17:50:24.568Z,1.20
2018-08-10T17:52:54.861Z,1.10
2018-08-10T17:55:25.011Z,1.30
2018-08-10T17:57:54.943Z,1.17
2018-08-10T18:00:26.690Z,1.30
2018-08-10T18:02:56.438Z,1.20
2018-08-10T18:05:26.338Z,1.70
2018-08-10T18:07:55.957Z,1.20
2018-08-10T18:10:25.894Z,4.37
2018-08-10T18:12:55.487Z,10.07
2018-08-10T18:16:07.155Z,9.50
2018-08-10T18:18:36.775Z,5.47
2018-08-10T18:21:06.342Z,3.87
2018-08-10T18:23:35.924Z,6.77
2018-08-10T18:26:05.695Z,3.30
2018-08-10T18:28:35.640Z,2.00
2018-08-10T18:31:05.459Z,1.40
2018-08-10T18:33:35.056Z,1.33
2018-08-10T18:36:04.730Z,1.60
2018-08-10T18:38:34.359Z,1.60
2018-08-10T18:41:04.012Z,1.80
2018-08-10T18:43:34.195Z,1.37
2018-08-10T18:46:03.875Z,1.77
2018-08-10T18:48:33.687Z,1.40
2018-08-10T18:51:03.706Z,1.60
2018-08-10T18:53:33.289Z,1.63
2018-08-10T18:56:02.920Z,1.50
2018-08-10T18:58:32.860Z,2.10
2018-08-10T19:01:02.519Z,1.87
2018-08-10T19:03:32.490Z,1.90
2018-08-10T19:06:02.425Z,1.80
2018-08-10T19:08:32.375Z,1.90
2018-08-10T19:11:02.414Z,2.20
2018-08-10T19:13:31.979Z,3.30
2018-08-10T19:16:01.639Z,2.70
2018-08-10T19:18:31.309Z,2.50
2018-08-10T19:21:01.263Z,2.03
2018-08-10T19:23:31.187Z,1.60
2018-08-10T19:26:01.012Z,1.70
2018-08-10T19:28:30.630Z,1.77
2018-08-10T19:31:00.201Z,1.57
2018-08-10T19:33:30.155Z,1.57
2018-08-10T19:35:59.759Z,1.70
2018-08-10T19:38:29.327Z,1.70
2018-08-10T19:40:58.880Z,1.50
2018-08-10T19:43:28.838Z,2.43
2018-08-10T19:45:58.389Z,3.60
2018-08-10T19:48:28.395Z,6.73
2018-08-10T19:50:58.137Z,6.00
2018-08-10T19:53:27.680Z,6.47
2018-08-10T19:55:57.334Z,5.17
2018-08-10T19:58:27.056Z,3.77
2018-08-10T20:00:56.657Z,3.53
2018-08-10T20:03:26.263Z,3.63
2018-08-10T20:05:56.283Z,3.70
2018-08-10T20:08:26.030Z,3.70
2018-08-10T20:11:01.062Z,3.50
2018-08-10T20:13:31.038Z,3.50
2018-08-10T20:16:00.777Z,3.07
2018-08-10T20:18:31.091Z,3.53
2018-08-10T20:21:00.985Z,3.10
2018-08-10T20:23:30.814Z,2.80
2018-08-10T20:26:00.426Z,2.63
2018-08-10T20:28:30.388Z,2.87
2018-08-10T20:31:00.160Z,2.60
2018-08-10T20:33:29.774Z,2.73
2018-08-10T20:35:59.765Z,3.00
2018-08-10T20:38:29.356Z,2.40
2018-08-10T20:40:59.285Z,2.10
2018-08-10T20:43:28.859Z,3.20
2018-08-10T20:45:58.896Z,6.53
2018-08-10T20:48:28.959Z,4.90
2018-08-10T20:50:58.847Z,3.30
2018-08-10T20:53:28.485Z,2.87
2018-08-10T20:55:58.489Z,3.70
2018-08-10T20:58:28.476Z,3.43
2018-08-10T21:00:58.039Z,3.50
2018-08-10T21:03:27.575Z,2.93
2018-08-10T21:05:57.376Z,3.13
2018-08-10T21:08:30.288Z,2.87
2018-08-10T21:11:00.402Z,2.70
2018-08-10T21:13:30.219Z,2.60
2018-08-10T21:16:00.348Z,2.70
2018-08-10T21:18:29.911Z,2.70
2018-08-10T21:20:59.839Z,2.43
2018-08-10T21:23:29.529Z,2.80
2018-08-10T21:25:59.067Z,3.07
2018-08-10T21:28:29.518Z,2.70
2018-08-10T21:30:59.083Z,2.87
2018-08-10T21:33:28.718Z,2.73
2018-08-10T21:35:58.256Z,2.80
2018-08-10T21:38:28.083Z,2.90
2018-08-10T21:40:57.590Z,3.00
2018-08-10T21:43:27.370Z,2.83
2018-08-10T21:45:57.024Z,2.93
2018-08-10T21:48:26.622Z,2.50
2018-08-10T21:50:56.775Z,2.60
2018-08-10T21:53:26.594Z,2.80
2018-08-10T21:55:56.378Z,2.90
2018-08-10T21:58:26.275Z,2.67
2018-08-10T22:01:02.792Z,2.77
2018-08-10T22:03:32.955Z,2.50
2018-08-10T22:06:02.860Z,2.90
2018-08-10T22:08:32.372Z,2.80
2018-08-10T22:11:02.451Z,2.70
2018-08-10T22:13:37.104Z,2.60
2018-08-10T22:16:11.859Z,2.63
2018-08-10T22:18:46.810Z,2.60
2018-08-10T22:21:16.681Z,2.43
2018-08-10T22:23:46.191Z,3.07
2018-08-10T22:26:15.976Z,2.50
2018-08-10T22:28:45.654Z,2.60
2018-08-10T22:31:15.595Z,2.67
2018-08-10T22:33:45.352Z,2.20
2018-08-10T22:36:14.918Z,2.83
2018-08-10T22:38:44.519Z,2.80
2018-08-10T22:41:15.289Z,2.50
2018-08-10T22:43:44.866Z,2.90
2018-08-10T22:46:14.989Z,2.37
2018-08-10T22:48:44.567Z,2.20
2018-08-10T22:51:14.363Z,3.13
2018-08-10T22:53:43.938Z,3.03
2018-08-10T22:56:13.450Z,2.83
2018-08-10T22:58:43.051Z,2.47
2018-08-10T23:01:12.582Z,2.60
2018-08-10T23:03:43.123Z,2.73
2018-08-10T23:06:13.039Z,2.50
2018-08-10T23:08:43.035Z,2.80
2018-08-10T23:11:12.655Z,2.60
2018-08-10T23:13:42.202Z,2.60
2018-08-10T23:16:11.778Z,2.37
2018-08-10T23:18:41.316Z,2.57
2018-08-10T23:21:11.238Z,2.83
2018-08-10T23:23:41.120Z,2.60
2018-08-10T23:26:10.662Z,3.80
2018-08-10T23:28:40.251Z,3.43
2018-08-10T23:31:09.796Z,2.90
2018-08-10T23:33:39.327Z,2.67
2018-08-10T23:36:09.196Z,2.40
2018-08-10T23:38:38.907Z,2.83
2018-08-10T23:41:08.762Z,2.87
2018-08-10T23:43:38.371Z,2.50
2018-08-10T23:46:08.403Z,3.30
2018-08-10T23:48:37.918Z,3.07
2018-08-10T23:51:07.619Z,3.10
2018-08-10T23:53:37.164Z,2.40
2018-08-10T23:56:07.871Z,2.93
2018-08-10T23:58:37.497Z,2.60
